createdAt,value
2023-02-11T00:01:35.258Z,21.58
2023-02-11T00:04:03.822Z,21.88
2023-02-11T00:06:33.464Z,21.38
2023-02-11T00:09:01.293Z,22.63
2023-02-11T00:11:30.811Z,20.42
2023-02-11T00:14:04.287Z,21.70
2023-02-11T00:16:33.189Z,20.35
2023-02-11T00:19:01.827Z,21.30
2023-02-11T00:21:29.877Z,20.60
2023-02-11T00:23:59.997Z,21.05
2023-02-11T00:26:32.634Z,20.17
2023-02-11T00:29:01.076Z,21.23
2023-02-11T00:31:28.856Z,19.27
2023-02-11T00:33:57.459Z,20.98
2023-02-11T00:36:26.887Z,20.05
2023-02-11T00:38:56.584Z,18.63
2023-02-11T00:41:24.595Z,20.38
2023-02-11T00:43:53.222Z,21.23
2023-02-11T00:46:22.652Z,21.42
2023-02-11T00:48:52.057Z,22.75
2023-02-11T00:51:19.493Z,24.13
2023-02-11T00:53:47.700Z,22.50
2023-02-11T00:56:17.397Z,25.65
2023-02-11T00:58:44.857Z,25.98
2023-02-11T01:01:14.528Z,25.67
2023-02-11T01:03:42.656Z,25.73
2023-02-11T01:06:11.042Z,25.15
2023-02-11T01:08:39.505Z,23.85
2023-02-11T01:11:12.365Z,24.30
2023-02-11T01:13:39.899Z,24.90
2023-02-11T01:16:09.603Z,24.15
2023-02-11T01:18:37.947Z,26.50
2023-02-11T01:21:07.977Z,24.85
2023-02-11T01:23:36.168Z,26.90
2023-02-11T01:26:05.997Z,26.45
2023-02-11T01:28:34.208Z,25.17
2023-02-11T01:31:03.079Z,25.40
2023-02-11T01:33:30.940Z,26.17
2023-02-11T01:36:04.528Z,26.55
2023-02-11T01:38:33.273Z,24.88
2023-02-11T01:41:07.548Z,24.30
2023-02-11T01:43:38.563Z,25.23
2023-02-11T01:46:06.730Z,25.63
2023-02-11T01:48:39.145Z,25.83
2023-02-11T01:51:22.487Z,26.23
2023-02-11T01:54:08.909Z,25.98
2023-02-11T01:57:01.111Z,25.23
2023-02-11T01:59:33.602Z,25.27
2023-02-11T02:02:06.590Z,24.17
2023-02-11T02:04:39.310Z,24.05
2023-02-11T02:07:12.441Z,24.42
2023-02-11T02:09:44.741Z,24.67
2023-02-11T02:12:12.203Z,22.73
2023-02-11T02:14:40.995Z,23.90
2023-02-11T02:17:18.041Z,23.85
2023-02-11T02:20:11.475Z,25.48
2023-02-11T02:22:48.012Z,23.35
2023-02-11T02:25:42.810Z,25.65
2023-02-11T02:28:33.038Z,23.65
2023-02-11T02:31:22.014Z,24.52
2023-02-11T02:34:07.024Z,23.55
2023-02-11T02:36:48.764Z,22.65
2023-02-11T02:39:23.115Z,22.73
2023-02-11T02:41:53.176Z,23.10
2023-02-11T02:44:23.046Z,23.23
2023-02-11T02:46:50.487Z,22.17
2023-02-11T02:49:23.642Z,23.08
2023-02-11T02:52:12.067Z,23.98
2023-02-11T02:55:00.566Z,23.45
2023-02-11T02:57:46.728Z,22.67
2023-02-11T03:00:33.224Z,21.73
2023-02-11T03:03:33.079Z,23.85
2023-02-11T03:06:13.453Z,24.63
2023-02-11T03:08:55.369Z,24.98
2023-02-11T03:11:24.703Z,24.90
2023-02-11T03:13:54.980Z,23.83
2023-02-11T03:16:28.614Z,25.02
2023-02-11T03:19:11.910Z,24.98
2023-02-11T03:21:42.446Z,24.80
2023-02-11T03:24:19.072Z,24.50
2023-02-11T03:26:57.258Z,24.13
2023-02-11T03:29:37.051Z,24.05
2023-02-11T03:32:41.678Z,25.20
2023-02-11T03:35:48.096Z,23.25
2023-02-11T03:38:23.945Z,26.30
2023-02-11T03:40:56.118Z,24.70
2023-02-11T03:43:31.231Z,25.13
2023-02-11T03:46:00.473Z,23.95
2023-02-11T03:48:52.082Z,24.50
2023-02-11T03:51:24.217Z,23.35
2023-02-11T03:53:55.652Z,24.10
2023-02-11T03:56:29.336Z,25.27
2023-02-11T03:58:56.497Z,26.90
2023-02-11T04:01:24.039Z,25.52
2023-02-11T04:03:51.323Z,24.90
2023-02-11T04:06:18.902Z,26.05
2023-02-11T04:08:46.269Z,27.10
2023-02-11T04:11:13.906Z,24.88
2023-02-11T04:13:41.211Z,25.65
2023-02-11T04:16:08.780Z,28.42
2023-02-11T04:18:36.141Z,29.20
2023-02-11T04:21:04.618Z,27.98
2023-02-11T04:23:32.138Z,24.98
2023-02-11T04:25:59.668Z,25.77
2023-02-11T04:28:29.652Z,24.33
2023-02-11T04:30:57.045Z,26.05
2023-02-11T04:33:24.702Z,25.25
2023-02-11T04:35:52.319Z,24.98
2023-02-11T04:38:20.927Z,25.55
2023-02-11T04:40:48.286Z,26.95
2023-02-11T04:43:15.755Z,26.15
2023-02-11T04:45:43.340Z,25.10
2023-02-11T04:48:11.725Z,26.52
2023-02-11T04:50:40.297Z,26.52
2023-02-11T04:53:07.721Z,24.92
2023-02-11T04:55:35.181Z,25.55
2023-02-11T04:58:03.527Z,25.17
2023-02-11T05:00:31.104Z,24.70
2023-02-11T05:02:58.570Z,24.42
2023-02-11T05:05:27.002Z,24.20
2023-02-11T05:07:56.432Z,26.65
2023-02-11T05:10:23.912Z,26.23
2023-02-11T05:12:52.593Z,26.65
2023-02-11T05:15:21.409Z,25.23
2023-02-11T05:17:49.906Z,26.35
2023-02-11T05:20:17.022Z,25.30
2023-02-11T05:22:45.388Z,25.25
2023-02-11T05:25:13.133Z,29.13
2023-02-11T05:27:40.183Z,27.73
2023-02-11T05:30:08.213Z,29.77
2023-02-11T05:32:35.820Z,26.30
2023-02-11T05:35:03.141Z,24.38
2023-02-11T05:37:30.604Z,25.10
2023-02-11T05:39:58.036Z,28.80
2023-02-11T05:42:26.526Z,24.58
2023-02-11T05:44:54.014Z,22.63
2023-02-11T05:47:22.514Z,22.52
2023-02-11T05:49:50.108Z,22.63
2023-02-11T05:52:20.072Z,22.77
2023-02-11T05:54:47.469Z,19.85
2023-02-11T05:57:16.486Z,23.13
2023-02-11T05:59:45.810Z,23.13
2023-02-11T06:02:13.617Z,23.90
2023-02-11T06:04:42.920Z,23.02
2023-02-11T06:07:11.552Z,22.33
2023-02-11T06:09:44.883Z,23.23
2023-02-11T06:14:45.110Z,23.27
2023-02-11T06:17:13.992Z,23.80
2023-02-11T06:19:42.554Z,23.23
2023-02-11T06:22:09.957Z,24.55
2023-02-11T06:24:58.952Z,23.88
2023-02-11T06:27:26.513Z,23.42
2023-02-11T06:29:53.864Z,23.45
2023-02-11T06:32:42.231Z,24.92
2023-02-11T06:35:11.891Z,25.08
2023-02-11T06:37:41.522Z,23.90
2023-02-11T06:40:09.169Z,24.10
2023-02-11T06:42:39.322Z,25.15
2023-02-11T06:45:13.569Z,23.80
2023-02-11T06:47:42.936Z,23.35
2023-02-11T06:50:13.650Z,23.75
2023-02-11T06:52:41.560Z,23.40
2023-02-11T06:55:15.275Z,24.73
2023-02-11T06:57:42.408Z,21.92
2023-02-11T07:00:11.426Z,24.05
2023-02-11T07:02:38.947Z,23.75
2023-02-11T07:05:08.054Z,22.85
2023-02-11T07:07:35.573Z,22.17
2023-02-11T07:10:04.455Z,20.02
2023-02-11T07:12:32.299Z,23.42
2023-02-11T07:14:59.361Z,24.13
2023-02-11T07:17:27.698Z,22.92
2023-02-11T07:19:54.720Z,21.77
2023-02-11T07:22:23.150Z,23.27
2023-02-11T07:24:50.944Z,22.80
2023-02-11T07:27:19.200Z,23.20
2023-02-11T07:29:48.952Z,22.95
2023-02-11T07:32:16.609Z,21.95
2023-02-11T07:34:43.956Z,22.08
2023-02-11T07:37:11.377Z,22.00
2023-02-11T07:39:39.113Z,22.83
2023-02-11T07:42:06.853Z,23.42
2023-02-11T07:44:34.852Z,22.95
2023-02-11T07:47:08.071Z,24.55
2023-02-11T07:49:39.404Z,24.40
2023-02-11T07:52:06.847Z,23.10
2023-02-11T07:54:34.352Z,26.33
2023-02-11T07:57:02.849Z,26.35
2023-02-11T07:59:30.369Z,25.17
2023-02-11T08:01:57.894Z,25.67
2023-02-11T08:04:25.213Z,25.25
2023-02-11T08:06:56.555Z,24.40
2023-02-11T08:09:26.295Z,26.27
2023-02-11T08:11:53.652Z,23.20
2023-02-11T08:14:21.354Z,22.25
2023-02-11T08:16:48.842Z,22.88
2023-02-11T08:19:17.540Z,22.60
2023-02-11T08:21:45.446Z,22.30
2023-02-11T08:24:13.618Z,23.30
2023-02-11T08:26:41.328Z,24.10
2023-02-11T08:29:13.897Z,22.08
2023-02-11T08:31:45.640Z,22.63
2023-02-11T08:34:14.720Z,21.95
2023-02-11T08:36:42.845Z,22.80
2023-02-11T08:39:19.605Z,22.80
2023-02-11T08:41:51.111Z,22.95
2023-02-11T08:44:20.065Z,22.17
2023-02-11T08:46:48.129Z,21.60
2023-02-11T08:49:15.912Z,22.27
2023-02-11T08:51:43.792Z,21.83
2023-02-11T08:54:11.395Z,22.08
2023-02-11T08:56:39.291Z,21.90
2023-02-11T08:59:07.889Z,20.63
2023-02-11T09:01:38.374Z,24.30
2023-02-11T09:04:05.808Z,21.10
2023-02-11T09:06:33.212Z,22.23
2023-02-11T09:09:00.970Z,47.67
2023-02-11T09:11:34.722Z,68.85
2023-02-11T09:14:04.460Z,27.98
2023-02-11T09:16:35.536Z,23.73
2023-02-11T09:19:06.009Z,23.67
2023-02-11T09:21:33.478Z,22.85
2023-02-11T09:24:01.099Z,22.73
2023-02-11T09:26:34.321Z,23.08
2023-02-11T09:29:03.649Z,21.52
2023-02-11T09:31:33.601Z,23.83
2023-02-11T09:34:04.810Z,44.75
2023-02-11T09:36:37.733Z,30.45
2023-02-11T09:39:09.651Z,24.55
2023-02-11T09:42:19.106Z,23.70
2023-02-11T09:44:48.047Z,26.40
2023-02-11T09:47:35.794Z,23.90
2023-02-11T09:50:39.007Z,22.70
2023-02-11T09:53:11.111Z,24.42
2023-02-11T09:55:47.078Z,24.75
2023-02-11T09:58:25.427Z,22.60
2023-02-11T10:01:14.394Z,25.25
2023-02-11T10:04:01.892Z,23.90
2023-02-11T10:06:50.996Z,23.15
2023-02-11T10:09:45.938Z,20.85
2023-02-11T10:12:43.961Z,23.88
2023-02-11T10:15:21.312Z,23.40
2023-02-11T10:18:19.170Z,21.05
2023-02-11T10:21:18.203Z,22.33
2023-02-11T10:23:56.340Z,23.48
2023-02-11T10:26:27.869Z,23.73
2023-02-11T10:29:01.633Z,24.30
2023-02-11T10:31:42.929Z,25.65
2023-02-11T10:34:16.251Z,25.30
2023-02-11T10:36:45.397Z,22.00
2023-02-11T10:39:24.527Z,22.55
2023-02-11T10:41:57.092Z,21.35
2023-02-11T10:44:50.020Z,20.57
2023-02-11T10:47:24.373Z,19.77
2023-02-11T10:49:53.832Z,20.73
2023-02-11T10:52:30.867Z,22.00
2023-02-11T10:55:05.268Z,21.05
2023-02-11T10:57:40.916Z,21.73
2023-02-11T11:00:31.139Z,19.35
2023-02-11T11:03:02.389Z,20.98
2023-02-11T11:05:33.622Z,21.83
2023-02-11T11:08:09.307Z,20.75
2023-02-11T11:10:45.335Z,20.38
2023-02-11T11:13:35.521Z,22.55
2023-02-11T11:16:14.834Z,23.10
2023-02-11T11:18:45.377Z,22.65
2023-02-11T11:21:43.468Z,23.08
2023-02-11T11:24:19.183Z,20.77
2023-02-11T11:26:52.946Z,22.23
2023-02-11T11:29:45.464Z,21.25
2023-02-11T11:32:28.100Z,22.95
2023-02-11T11:34:59.866Z,22.05
2023-02-11T11:37:42.170Z,20.48
2023-02-11T11:40:31.941Z,22.75
2023-02-11T11:43:15.428Z,20.02
2023-02-11T11:45:58.240Z,20.10
2023-02-11T11:48:38.716Z,20.27
2023-02-11T11:51:10.579Z,20.48
2023-02-11T11:54:12.624Z,31.42
2023-02-11T11:57:00.107Z,21.63
2023-02-11T11:59:30.894Z,24.02
2023-02-11T12:02:08.677Z,21.58
2023-02-11T12:04:55.661Z,19.90
2023-02-11T12:07:50.702Z,21.30
2023-02-11T12:10:21.667Z,18.90
2023-02-11T12:13:08.067Z,18.55
2023-02-11T12:16:10.428Z,18.30
2023-02-11T12:19:05.705Z,18.33
2023-02-11T12:21:54.458Z,17.50
2023-02-11T12:24:44.754Z,19.63
2023-02-11T12:27:24.445Z,21.33
2023-02-11T12:30:17.930Z,20.10
2023-02-11T12:32:53.705Z,19.40
2023-02-11T12:35:30.422Z,19.00
2023-02-11T12:38:16.750Z,23.45
2023-02-11T12:41:11.031Z,19.65
2023-02-11T12:43:44.145Z,21.30
2023-02-11T12:46:35.222Z,21.60
2023-02-11T12:49:26.261Z,22.65
2023-02-11T12:52:29.501Z,22.33
2023-02-11T12:55:04.704Z,20.40
2023-02-11T12:57:36.114Z,20.92
2023-02-11T13:00:13.437Z,21.48
2023-02-11T13:02:59.677Z,23.25
2023-02-11T13:05:34.348Z,22.90
2023-02-11T13:08:26.128Z,21.75
2023-02-11T13:11:00.885Z,20.70
2023-02-11T13:13:35.033Z,21.88
2023-02-11T13:16:36.961Z,22.10
2023-02-11T13:19:13.898Z,25.75
2023-02-11T13:22:06.279Z,42.25
2023-02-11T13:25:04.343Z,28.63
2023-02-11T13:27:37.974Z,19.27
2023-02-11T13:32:58.467Z,21.95
2023-02-11T13:35:35.067Z,21.80
2023-02-11T13:38:19.354Z,20.42
2023-02-11T13:41:02.828Z,23.00
2023-02-11T13:43:34.894Z,21.75
2023-02-11T13:46:07.611Z,22.38
2023-02-11T13:48:46.590Z,23.20
2023-02-11T13:51:18.183Z,21.75
2023-02-11T13:53:54.553Z,21.15
2023-02-11T13:56:38.574Z,21.33
2023-02-11T13:59:27.397Z,20.50
2023-02-11T14:02:19.559Z,21.67
2023-02-11T14:05:24.065Z,23.20
2023-02-11T14:08:29.049Z,19.60
2023-02-11T14:11:11.361Z,18.77
2023-02-11T14:13:49.030Z,20.35
2023-02-11T14:16:36.449Z,21.15
2023-02-11T14:19:06.669Z,18.73
2023-02-11T14:21:38.836Z,22.10
2023-02-11T14:24:07.308Z,20.85
2023-02-11T14:26:55.712Z,21.70
2023-02-11T14:29:53.010Z,19.70
2023-02-11T14:32:39.859Z,21.17
2023-02-11T14:35:31.867Z,23.20
2023-02-11T14:38:29.070Z,21.63
2023-02-11T14:41:06.638Z,23.50
2023-02-11T14:43:49.478Z,22.38
2023-02-11T14:46:21.427Z,22.07
2023-02-11T14:48:53.358Z,22.27
2023-02-11T14:51:28.972Z,23.17
2023-02-11T14:54:20.355Z,23.98
2023-02-11T14:57:26.260Z,24.13
2023-02-11T14:59:59.663Z,24.88
2023-02-11T15:07:52.420Z,23.92
2023-02-11T15:10:35.548Z,25.05
2023-02-11T15:13:05.735Z,25.63
2023-02-11T15:15:37.849Z,26.75
2023-02-11T15:18:06.463Z,26.98
2023-02-11T15:20:35.181Z,27.10
2023-02-11T15:23:08.407Z,30.02
2023-02-11T15:25:44.787Z,29.30
2023-02-11T15:28:26.250Z,32.03
2023-02-11T15:31:03.865Z,31.27
2023-02-11T15:33:33.589Z,33.30
2023-02-11T15:36:03.250Z,30.17
2023-02-11T15:38:37.329Z,33.60
2023-02-11T15:41:08.387Z,35.60
2023-02-11T15:43:51.517Z,34.97
2023-02-11T15:46:36.096Z,37.88
2023-02-11T15:49:06.550Z,41.60
2023-02-11T15:51:37.247Z,41.90
2023-02-11T15:54:17.493Z,40.85
2023-02-11T15:56:49.469Z,39.72
2023-02-11T15:59:38.490Z,44.95
2023-02-11T16:02:19.865Z,41.78
2023-02-11T16:05:03.316Z,42.60
2023-02-11T16:07:46.817Z,53.28
2023-02-11T16:10:31.714Z,43.38
2023-02-11T16:13:09.621Z,51.85
2023-02-11T16:15:59.285Z,44.80
2023-02-11T16:18:42.423Z,45.17
2023-02-11T16:21:19.117Z,44.42
2023-02-11T16:23:55.842Z,42.38
2023-02-11T16:26:34.008Z,45.53
2023-02-11T16:29:16.306Z,46.78
2023-02-11T16:31:50.471Z,44.67
2023-02-11T16:34:23.206Z,46.20
2023-02-11T16:36:53.947Z,47.63
2023-02-11T16:39:23.687Z,46.45
2023-02-11T16:41:53.084Z,46.53
2023-02-11T16:44:21.119Z,46.42
2023-02-11T16:46:49.667Z,44.90
2023-02-11T16:49:27.300Z,46.03
2023-02-11T16:52:03.275Z,47.60
2023-02-11T16:54:31.916Z,43.38
2023-02-11T16:57:00.358Z,46.85
2023-02-11T16:59:28.727Z,46.20
2023-02-11T17:01:59.763Z,49.92
2023-02-11T17:04:31.348Z,47.05
2023-02-11T17:06:59.928Z,49.92
2023-02-11T17:09:30.787Z,46.00
2023-02-11T17:12:00.859Z,47.30
2023-02-11T17:14:29.975Z,48.83
2023-02-11T17:16:58.679Z,50.08
2023-02-11T17:19:26.744Z,52.97
2023-02-11T17:21:55.032Z,46.58
2023-02-11T17:24:23.711Z,47.90
2023-02-11T17:26:52.232Z,48.20
2023-02-11T17:29:25.228Z,46.70
2023-02-11T17:31:54.397Z,46.95
2023-02-11T17:34:23.729Z,50.72
2023-02-11T17:36:52.689Z,48.65
2023-02-11T17:39:28.301Z,43.78
2023-02-11T17:41:57.481Z,45.17
2023-02-11T17:44:26.984Z,48.55
2023-02-11T17:46:55.396Z,45.45
2023-02-11T17:49:23.793Z,45.67
2023-02-11T17:51:52.073Z,46.78
2023-02-11T17:54:21.810Z,49.30
2023-02-11T17:56:51.471Z,45.53
2023-02-11T17:59:19.753Z,47.28
2023-02-11T18:01:48.369Z,47.38
2023-02-11T18:04:20.185Z,47.50
2023-02-11T18:06:56.264Z,48.00
2023-02-11T18:09:25.962Z,49.05
2023-02-11T18:11:55.753Z,47.65
2023-02-11T18:14:33.995Z,46.97
2023-02-11T18:17:02.590Z,47.40
2023-02-11T18:19:33.719Z,46.53
2023-02-11T18:22:05.000Z,45.33
2023-02-11T18:24:33.712Z,48.97
2023-02-11T18:27:02.399Z,46.70
2023-02-11T18:29:30.497Z,47.45
2023-02-11T18:31:59.128Z,49.15
2023-02-11T18:34:30.821Z,46.85
2023-02-11T18:36:59.660Z,50.55
2023-02-11T18:39:31.035Z,45.42
2023-02-11T18:42:00.440Z,47.05
2023-02-11T18:44:29.091Z,45.33
2023-02-11T18:47:05.138Z,44.97
2023-02-11T18:49:34.109Z,39.78
2023-02-11T18:52:04.804Z,46.10
2023-02-11T18:54:35.287Z,46.42
2023-02-11T18:57:06.638Z,46.47
2023-02-11T18:59:35.162Z,47.25
2023-02-11T19:02:03.311Z,43.75
2023-02-11T19:04:32.585Z,44.45
2023-02-11T19:07:04.001Z,46.60
2023-02-11T19:09:32.206Z,45.80
2023-02-11T19:12:04.355Z,45.15
2023-02-11T19:14:35.097Z,46.90
2023-02-11T19:17:10.282Z,45.97
2023-02-11T19:19:39.123Z,45.00
2023-02-11T19:22:10.592Z,46.47
2023-02-11T19:24:40.259Z,47.97
2023-02-11T19:27:08.513Z,49.88
2023-02-11T19:29:38.374Z,43.30
2023-02-11T19:32:08.687Z,41.47
2023-02-11T19:34:41.779Z,40.35
2023-02-11T19:37:13.998Z,37.70
2023-02-11T19:39:43.443Z,35.65
2023-02-11T19:42:12.532Z,37.70
2023-02-11T19:44:41.755Z,37.88
2023-02-11T19:47:11.338Z,38.75
2023-02-11T19:49:39.223Z,36.45
2023-02-11T19:52:08.782Z,36.70
2023-02-11T19:54:41.393Z,35.95
2023-02-11T19:57:12.992Z,37.25
2023-02-11T19:59:41.918Z,37.28
2023-02-11T20:02:15.052Z,36.83
2023-02-11T20:04:46.853Z,36.00
2023-02-11T20:07:16.352Z,34.03
2023-02-11T20:09:45.059Z,33.20
2023-02-11T20:12:16.205Z,33.22
2023-02-11T20:14:44.348Z,31.63
2023-02-11T20:17:13.775Z,29.55
2023-02-11T20:19:42.616Z,30.58
2023-02-11T20:22:11.204Z,29.35
2023-02-11T20:24:42.111Z,29.65
2023-02-11T20:27:11.835Z,28.45
2023-02-11T20:29:48.910Z,27.60
2023-02-11T20:32:17.699Z,24.65
2023-02-11T20:34:47.122Z,24.50
2023-02-11T20:37:20.466Z,23.27
2023-02-11T20:39:49.055Z,23.73
2023-02-11T20:42:16.979Z,24.77
2023-02-11T20:44:47.941Z,26.58
2023-02-11T20:47:17.780Z,24.88
2023-02-11T20:49:47.879Z,20.50
2023-02-11T20:52:16.799Z,21.63
2023-02-11T20:54:48.251Z,22.08
2023-02-11T20:57:16.868Z,20.75
2023-02-11T20:59:52.024Z,20.63
2023-02-11T21:02:23.587Z,20.48
2023-02-11T21:04:54.978Z,20.98
2023-02-11T21:07:23.294Z,20.13
2023-02-11T21:09:52.726Z,19.98
2023-02-11T21:12:21.101Z,20.40
2023-02-11T21:14:49.479Z,19.83
2023-02-11T21:17:17.948Z,17.15
2023-02-11T21:19:45.761Z,19.05
2023-02-11T21:22:14.530Z,18.38
2023-02-11T21:24:42.859Z,19.23
2023-02-11T21:27:13.166Z,18.73
2023-02-11T21:29:53.543Z,18.98
2023-02-11T21:32:22.581Z,19.83
2023-02-11T21:34:51.131Z,21.05
2023-02-11T21:37:19.549Z,19.30
2023-02-11T21:39:48.147Z,22.95
2023-02-11T21:42:16.972Z,20.85
2023-02-11T21:44:45.208Z,20.88
2023-02-11T21:47:12.996Z,23.00
2023-02-11T21:49:43.684Z,22.83
2023-02-11T21:52:11.521Z,21.17
2023-02-11T21:54:39.238Z,24.63
2023-02-11T21:57:07.605Z,22.08
2023-02-11T21:59:35.765Z,25.05
2023-02-11T22:02:05.610Z,23.48
2023-02-11T22:04:36.029Z,23.40
2023-02-11T22:07:06.676Z,27.13
2023-02-11T22:09:42.032Z,25.30
2023-02-11T22:14:39.688Z,25.30
2023-02-11T22:17:08.884Z,26.05
2023-02-11T22:19:37.604Z,36.10
2023-02-11T22:22:08.644Z,31.27
2023-02-11T22:24:37.053Z,52.85
2023-02-11T22:27:04.614Z,40.70
2023-02-11T22:29:31.803Z,31.48
2023-02-11T22:31:59.255Z,38.53
2023-02-11T22:34:27.749Z,40.53
2023-02-11T22:36:55.251Z,36.60
2023-02-11T22:39:22.670Z,33.95
2023-02-11T22:41:50.186Z,28.58
2023-02-11T22:44:18.701Z,37.03
2023-02-11T22:46:46.362Z,38.33
2023-02-11T22:49:15.229Z,34.22
2023-02-11T22:51:43.064Z,53.17
2023-02-11T22:54:16.390Z,42.42
2023-02-11T22:56:44.108Z,42.65
2023-02-11T22:59:13.889Z,32.58
2023-02-11T23:01:41.709Z,35.35
2023-02-11T23:04:12.452Z,32.45
2023-02-11T23:06:40.198Z,36.60
2023-02-11T23:09:10.566Z,34.72
2023-02-11T23:11:38.534Z,38.50
2023-02-11T23:14:06.034Z,34.70
2023-02-11T23:16:39.717Z,36.90
2023-02-11T23:19:08.976Z,34.22
2023-02-11T23:21:38.417Z,36.40
2023-02-11T23:24:10.443Z,38.65
2023-02-11T23:26:40.077Z,51.60
2023-02-11T23:29:08.003Z,68.97
2023-02-11T23:31:40.078Z,44.17
2023-02-11T23:34:08.429Z,41.40
2023-02-11T23:36:36.080Z,42.63
2023-02-11T23:39:05.913Z,42.58
2023-02-11T23:41:33.139Z,40.75
2023-02-11T23:44:03.168Z,41.20
2023-02-11T23:46:30.576Z,39.72
2023-02-11T23:48:58.020Z,42.13
2023-02-11T23:51:25.422Z,40.65
2023-02-11T23:53:54.379Z,44.50
2023-02-11T23:56:24.172Z,35.13
2023-02-11T23:58:53.450Z,43.60
